createdAt,value
2019-04-01T04:27:36.559Z,69
2019-04-01T04:30:03.467Z,67.4
2019-04-01T04:31:16.037Z,66.9
2019-04-01T04:33:37.591Z,66.2
2019-04-01T04:34:49.675Z,65
2019-04-01T04:36:01.905Z,64.3
2019-04-01T04:38:26.336Z,64
2019-04-01T04:39:38.511Z,64.1
2019-04-01T04:40:50.647Z,61.9
2019-04-01T04:42:02.839Z,63.3
2019-04-01T04:43:15.106Z,62.2
2019-04-01T04:45:39.562Z,63.2
2019-04-01T04:46:51.663Z,63.9
2019-04-01T04:48:03.812Z,63.1
2019-04-01T04:49:15.997Z,61.2
2019-04-01T04:50:28.305Z,61.1
2019-04-01T04:51:40.480Z,62
2019-04-01T04:52:52.655Z,64
2019-04-01T04:54:04.832Z,62.9
2019-04-01T04:55:16.962Z,62.9
2019-04-01T04:58:53.552Z,63.9
2019-04-01T05:00:05.829Z,63.7
2019-04-01T05:01:17.950Z,64.1
2019-04-01T05:02:30.143Z,63.8
2019-04-01T05:03:42.349Z,64.2
2019-04-01T05:04:54.536Z,63.5
2019-04-01T05:06:06.866Z,63.6
2019-04-01T05:07:18.930Z,64.1
2019-04-01T05:09:43.386Z,63.3
2019-04-01T05:10:55.568Z,63.1
2019-04-01T05:12:07.782Z,63.6
2019-04-01T05:13:19.993Z,61.9
2019-04-01T05:15:44.337Z,63.8
2019-04-01T05:16:56.550Z,63.1
2019-04-01T05:18:11.232Z,64.8
2019-04-01T05:19:23.302Z,65
2019-04-01T05:21:45.598Z,65.2
2019-04-01T05:22:57.458Z,63.9
2019-04-01T05:24:09.675Z,65.3
2019-04-01T05:25:21.879Z,64.8
2019-04-01T05:26:34.142Z,64.2
2019-04-01T05:27:46.249Z,63.6
2019-04-01T05:28:58.452Z,64.6
2019-04-01T05:30:10.719Z,65.1
2019-04-01T05:31:22.911Z,66.2
2019-04-01T05:33:47.300Z,64.8
2019-04-01T05:34:59.445Z,66.9
2019-04-01T05:36:11.683Z,66.4
2019-04-01T05:37:23.829Z,65.6
2019-04-01T05:38:36.082Z,66.8
2019-04-01T05:39:48.370Z,65.6
2019-04-01T05:41:00.487Z,65.7
2019-04-01T05:42:12.593Z,65.7
2019-04-01T05:43:24.799Z,66.5
2019-04-01T05:45:49.192Z,66.4
2019-04-01T05:47:01.458Z,67.1
2019-04-01T05:48:17.981Z,67.3
2019-04-01T05:49:25.780Z,66.7
2019-04-01T05:50:38.121Z,68
2019-04-01T05:51:50.388Z,67
2019-04-01T05:53:02.387Z,67.4
2019-04-01T05:54:14.555Z,68.1
2019-04-01T05:55:26.837Z,67.8
2019-04-01T05:57:51.187Z,69
2019-04-01T05:59:03.366Z,68.5
2019-04-01T06:00:15.612Z,68.5
2019-04-01T06:01:27.735Z,67.6
2019-04-01T06:02:39.921Z,68.6
2019-04-01T06:03:52.110Z,68.4
2019-04-01T06:05:04.315Z,68.1
2019-04-01T06:06:16.522Z,67.9
2019-04-01T06:07:28.726Z,68
2019-04-01T06:09:53.119Z,68.8
2019-04-01T06:12:17.595Z,68.8
2019-04-01T06:13:29.793Z,68.8
2019-04-01T06:14:41.884Z,69.4
2019-04-01T06:15:54.120Z,69.4
2019-04-01T06:17:06.323Z,69.7
2019-04-01T06:18:18.546Z,69.4
2019-04-01T06:19:30.665Z,68.7
2019-04-01T06:21:55.201Z,70.3
2019-04-01T06:23:07.475Z,69.8
2019-04-01T06:24:19.526Z,69.8
2019-04-01T06:25:31.659Z,69.2
2019-04-01T06:26:44.027Z,70.3
2019-04-01T06:27:56.095Z,70
2019-04-01T06:29:08.225Z,70
2019-04-01T06:30:20.445Z,69
2019-04-01T06:31:32.670Z,69.1
2019-04-01T06:33:57.006Z,70.6
2019-04-01T06:36:21.441Z,70.2
2019-04-01T06:37:33.608Z,69.9
2019-04-01T06:38:45.780Z,69.9
2019-04-01T06:39:58.134Z,69.7
2019-04-01T06:41:10.187Z,70.1
2019-04-01T06:42:22.396Z,69.6
2019-04-01T06:43:34.603Z,70.3
2019-04-01T06:45:58.983Z,70.5
2019-04-01T06:47:11.214Z,70.7
2019-04-01T06:48:23.454Z,69.4
2019-04-01T06:49:35.585Z,70.3
2019-04-01T06:50:48.145Z,70.4
2019-04-01T06:51:59.987Z,65.8
2019-04-01T06:53:12.184Z,69.8
2019-04-01T06:54:24.375Z,70.3
2019-04-01T06:55:36.610Z,69.9
2019-04-01T06:58:00.983Z,69.6
2019-04-01T06:59:13.113Z,69.9
2019-04-01T07:00:25.391Z,69.5
2019-04-01T07:01:37.534Z,69.3
2019-04-01T07:02:49.733Z,69
2019-04-01T07:04:01.895Z,69.2
2019-04-01T07:05:14.083Z,69.8
2019-04-01T07:06:26.380Z,68.6
2019-04-01T07:07:38.705Z,69.6
2019-04-01T07:10:02.884Z,68
2019-04-01T07:12:27.270Z,67.5
2019-04-01T07:13:40.656Z,68
2019-04-01T07:14:52.808Z,67.8
2019-04-01T07:16:04.004Z,67.9
2019-04-01T07:17:16.178Z,67.8
2019-04-01T07:18:28.246Z,67.9
2019-04-01T07:22:04.903Z,67.5
2019-04-01T07:23:17.097Z,67.5
2019-04-01T07:24:29.328Z,67.2
2019-04-01T07:25:41.405Z,66.5
2019-04-01T07:26:53.619Z,67.4
2019-04-01T07:28:05.874Z,66.1
2019-04-01T07:29:18.176Z,65.9
2019-04-01T07:30:30.287Z,66.7
2019-04-01T07:31:42.404Z,65.5
2019-04-01T07:32:54.670Z,65.1
2019-04-01T07:34:06.774Z,66.2
2019-04-01T07:35:18.981Z,64.7
2019-04-01T07:36:31.362Z,65.7
2019-04-01T07:38:55.569Z,64.8
2019-04-01T07:40:07.762Z,64.3
2019-04-01T07:41:19.986Z,64
2019-04-01T07:42:32.150Z,64.1
2019-04-01T07:43:44.385Z,64
2019-04-01T07:46:08.880Z,62.6
2019-04-01T07:48:33.126Z,62.4
2019-04-01T07:49:45.315Z,61.9
2019-04-01T07:50:57.527Z,62.3
2019-04-01T07:52:09.749Z,63
2019-04-01T07:53:22.029Z,62.3
2019-04-01T07:54:34.212Z,61.9
2019-04-01T07:55:46.288Z,61.8
2019-04-01T07:58:10.694Z,60.2
2019-04-01T07:59:22.880Z,60.5
2019-04-01T08:00:35.137Z,60.6
2019-04-01T08:01:47.339Z,59.8
2019-04-01T08:02:59.515Z,60.1
2019-04-01T08:04:11.721Z,60.2
2019-04-01T08:05:23.979Z,61
2019-04-01T08:06:36.151Z,60.5
2019-04-01T08:10:12.641Z,59.6
2019-04-01T08:13:49.236Z,59.3
2019-04-01T08:15:01.480Z,60.9
2019-04-01T08:17:25.839Z,58.7
2019-04-01T08:18:38.118Z,58.9
2019-04-01T08:22:14.663Z,60.5
2019-04-01T08:23:26.879Z,60
2019-04-01T08:24:38.984Z,60.1
2019-04-01T08:25:51.316Z,61
2019-04-01T08:27:03.512Z,59.9
2019-04-01T08:28:15.585Z,59.5
2019-04-01T08:29:27.791Z,60
2019-04-01T08:30:39.978Z,59.6
2019-04-01T08:31:52.349Z,60.2
2019-04-01T08:34:16.664Z,60
2019-04-01T08:35:28.769Z,60.5
2019-04-01T08:36:41.191Z,59.8
2019-04-01T08:37:53.169Z,61.1
2019-04-01T08:39:05.490Z,59.6
2019-04-01T08:40:17.564Z,61.2
2019-04-01T08:41:29.728Z,59.8
2019-04-01T08:42:41.955Z,60.7
2019-04-01T08:43:54.258Z,59.1
2019-04-01T08:46:18.494Z,58.6
2019-04-01T08:47:30.725Z,58.4
2019-04-01T08:48:43.039Z,57.8
2019-04-01T08:49:55.094Z,58
2019-04-01T08:51:07.281Z,57.9
2019-04-01T08:52:19.577Z,57.4
2019-04-01T08:53:31.781Z,57.2
2019-04-01T08:54:43.950Z,57.4
2019-04-01T08:55:56.267Z,56
2019-04-01T08:58:20.585Z,55.9
2019-04-01T08:59:32.677Z,56.4
2019-04-01T09:00:44.855Z,56
2019-04-01T09:01:57.053Z,56
2019-04-01T09:03:09.705Z,55.4
2019-04-01T09:04:21.459Z,56.6
2019-04-01T09:05:33.827Z,54.4
2019-04-01T09:06:48.453Z,55.1
2019-04-01T09:07:58.018Z,55.4
2019-04-01T09:10:22.501Z,54.5
2019-04-01T09:11:34.613Z,55
2019-04-01T09:12:46.865Z,54.8
2019-04-01T09:13:58.996Z,54.7
2019-04-01T09:15:11.244Z,53.5
2019-04-01T09:16:23.384Z,53
2019-04-01T09:17:35.701Z,52.6
2019-04-01T09:18:48.342Z,52.9
2019-04-01T09:19:59.981Z,52.9
2019-04-01T09:22:25.746Z,50.6
2019-04-01T09:23:36.863Z,50.2
2019-04-01T09:24:48.812Z,50.9
2019-04-01T09:26:00.943Z,49.8
2019-04-01T09:27:13.148Z,49.8
2019-04-01T09:28:25.333Z,50
2019-04-01T09:29:37.568Z,49.8
2019-04-01T09:30:49.944Z,49.8
2019-04-01T09:32:02.042Z,50
2019-04-01T09:34:26.373Z,51
2019-04-01T09:35:38.521Z,49.2
2019-04-01T09:36:51.081Z,49
2019-04-01T09:38:02.897Z,48.4
2019-04-01T09:39:15.126Z,49
2019-04-01T09:40:27.380Z,48.9
2019-04-01T09:41:39.618Z,49.1
2019-04-01T09:42:51.795Z,50
2019-04-01T09:44:03.932Z,47.6
2019-04-01T09:46:28.562Z,46.4
2019-04-01T09:47:40.493Z,47.6
2019-04-01T09:48:52.787Z,45.4
2019-04-01T09:50:04.999Z,47.3
2019-04-01T09:51:17.200Z,42.8
2019-04-01T09:52:29.289Z,41.1
2019-04-01T09:53:41.604Z,41
2019-04-01T09:54:53.660Z,41.8
2019-04-01T09:56:05.855Z,40.5
2019-04-01T09:58:30.371Z,40.2
2019-04-01T09:59:42.507Z,40.4
2019-04-01T10:00:54.730Z,39.5
2019-04-01T10:02:06.860Z,39.4
2019-04-01T10:03:19.016Z,40.2
2019-04-01T10:04:31.217Z,39.5
2019-04-01T10:05:43.411Z,39.4
2019-04-01T10:06:55.712Z,39.5
2019-04-01T10:08:07.805Z,39.8
2019-04-01T10:09:19.994Z,39
2019-04-01T10:10:32.194Z,40.3
2019-04-01T10:12:56.666Z,39.8
2019-04-01T10:14:08.944Z,39.6
2019-04-01T10:15:20.987Z,39.1
2019-04-01T10:16:33.257Z,38.5
2019-04-01T10:17:45.394Z,38
2019-04-01T10:18:57.560Z,38.1
2019-04-01T10:20:09.759Z,38
2019-04-01T10:22:34.670Z,39.1
2019-04-01T10:23:46.399Z,39.4
2019-04-01T10:24:59.731Z,38.1
2019-04-01T10:26:11.149Z,37.8
2019-04-01T10:27:23.112Z,38.6
2019-04-01T10:28:35.192Z,38
2019-04-01T10:30:59.530Z,38.3
2019-04-01T10:32:11.718Z,38.7
2019-04-01T10:34:36.173Z,38.5
2019-04-01T10:35:48.296Z,38.5
2019-04-01T10:38:12.684Z,38.3
2019-04-01T10:39:24.869Z,37.9
2019-04-01T10:40:37.141Z,37.3
2019-04-01T10:41:49.385Z,38.4
2019-04-01T10:43:01.470Z,37.9
2019-04-01T10:44:13.798Z,36.9
2019-04-01T10:46:38.183Z,37.3
2019-04-01T10:49:02.439Z,37.9
2019-04-01T10:50:14.641Z,37.4
2019-04-01T10:51:26.889Z,36.9
2019-04-01T10:52:39.038Z,37.5
2019-04-01T10:53:51.342Z,36.6
2019-04-01T10:55:03.433Z,36.4
2019-04-01T10:56:15.645Z,36.8
2019-04-01T10:58:40.134Z,37
2019-04-01T10:59:52.358Z,36.1
2019-04-01T11:01:04.420Z,36.7
2019-04-01T11:02:16.622Z,36.1
2019-04-01T11:03:29.134Z,37.4
2019-04-01T11:04:40.997Z,35.9
2019-04-01T11:07:06.906Z,36.6
2019-04-01T11:08:17.669Z,35.2
2019-04-01T11:10:42.110Z,36.5
2019-04-01T11:11:54.158Z,35.5
2019-04-01T11:13:06.399Z,35.1
2019-04-01T11:14:18.586Z,34.8
2019-04-01T11:15:30.859Z,37.9
2019-04-01T11:16:42.943Z,34.7
2019-04-01T11:17:55.220Z,34.6
2019-04-01T11:19:07.370Z,33.3
2019-04-01T11:22:43.940Z,35.3
2019-04-01T11:23:56.306Z,35.2
2019-04-01T11:25:08.356Z,34.4
2019-04-01T11:26:20.565Z,34.8
2019-04-01T11:27:32.731Z,36.3
2019-04-01T11:28:47.533Z,37.3
2019-04-01T11:29:59.736Z,37.8
2019-04-01T11:31:12.491Z,36.2
2019-04-01T11:32:21.553Z,36.1
2019-04-01T11:34:45.929Z,36.2
2019-04-01T11:37:10.356Z,35.4
2019-04-01T11:38:22.537Z,35.1
2019-04-01T11:39:34.645Z,34.6
2019-04-01T11:40:46.863Z,34.3
2019-04-01T11:41:59.061Z,35.5
2019-04-01T11:43:11.242Z,34.9
2019-04-01T11:44:23.572Z,35.9
2019-04-01T11:46:47.948Z,35.6
2019-04-01T11:48:00.048Z,35.7
2019-04-01T11:50:24.563Z,35.6
2019-04-01T11:51:36.823Z,35.2
2019-04-01T11:52:48.809Z,34.1
2019-04-01T11:54:01.011Z,34.9
2019-04-01T11:55:13.218Z,34.8
2019-04-01T11:58:49.839Z,33.5
2019-04-01T12:00:03.304Z,34.1
2019-04-01T12:01:14.184Z,36
2019-04-01T12:02:26.386Z,36.9
2019-04-01T12:04:50.821Z,33.8
2019-04-01T12:06:02.954Z,32.8
2019-04-01T12:07:15.205Z,32.5
2019-04-01T12:08:27.434Z,32.9
2019-04-01T12:10:51.848Z,32.1
2019-04-01T12:12:03.947Z,31.6
2019-04-01T12:13:16.153Z,33.8
2019-04-01T12:14:28.442Z,34.5
2019-04-01T12:15:40.529Z,34.9
2019-04-01T12:16:52.768Z,34.1
2019-04-01T12:18:04.987Z,34.7
2019-04-01T12:19:17.098Z,32
2019-04-01T12:20:29.344Z,32.2
2019-04-01T12:22:53.705Z,32.4
2019-04-01T12:24:05.905Z,32.9
2019-04-01T12:25:18.086Z,32.6
2019-04-01T12:26:30.303Z,32.4
2019-04-01T12:27:42.496Z,32.1
2019-04-01T12:28:54.781Z,31.5
2019-04-01T12:30:06.872Z,31.5
2019-04-01T12:31:19.057Z,31.8
2019-04-01T12:36:07.922Z,33.8
2019-04-01T12:37:20.118Z,31.9
2019-04-01T12:38:32.335Z,32.5
2019-04-01T12:40:56.841Z,33.3
2019-04-01T12:42:09.033Z,33.5
2019-04-01T12:43:21.068Z,33
2019-04-01T12:44:33.241Z,32.3
2019-04-01T12:46:57.623Z,31.9
2019-04-01T12:48:09.849Z,32.1
2019-04-01T12:50:34.200Z,33
2019-04-01T12:51:46.578Z,31.1
2019-04-01T12:52:58.600Z,32.2
2019-04-01T12:54:10.984Z,31.8
2019-04-01T12:55:23.008Z,32.1
2019-04-01T12:56:35.226Z,33.1
2019-04-01T12:58:59.562Z,32.8
2019-04-01T13:00:11.782Z,32.5
2019-04-01T13:02:36.188Z,33.6
2019-04-01T13:03:48.403Z,33.9
2019-04-01T13:05:00.564Z,33.9
2019-04-01T13:06:12.757Z,33.9
2019-04-01T13:07:25.068Z,32.4
2019-04-01T13:08:37.332Z,31.8
2019-04-01T13:11:01.513Z,33.5
2019-04-01T13:12:13.721Z,33.1
2019-04-01T13:13:25.921Z,34.4
2019-04-01T13:14:38.192Z,34.5
2019-04-01T13:17:02.700Z,34.5
2019-04-01T13:18:14.745Z,33.8
2019-04-01T13:20:39.107Z,32.6
2019-04-01T13:23:03.484Z,33.6
2019-04-01T13:24:15.686Z,32.6
2019-04-01T13:25:27.872Z,33.7
2019-04-01T13:26:40.080Z,31.5
2019-04-01T13:27:52.272Z,32.4
2019-04-01T13:29:04.477Z,32.4
2019-04-01T13:30:16.657Z,33.8
2019-04-01T13:31:28.942Z,34.9
2019-04-01T13:32:41.060Z,35
2019-04-01T13:35:05.485Z,34.3
2019-04-01T13:36:17.632Z,36.6
2019-04-01T13:37:29.822Z,33.7
2019-04-01T13:38:42.026Z,33.5
2019-04-01T13:39:54.228Z,33.2
2019-04-01T13:41:06.450Z,32.8
2019-04-01T13:42:18.612Z,34.1
2019-04-01T13:43:30.847Z,35.9
2019-04-01T13:44:43.088Z,34.6
2019-04-01T13:47:07.451Z,36
2019-04-01T13:48:19.723Z,34.6
2019-04-01T13:49:31.789Z,35.6
2019-04-01T13:50:43.999Z,36.1
2019-04-01T13:51:56.372Z,37.3
2019-04-01T13:53:08.365Z,38.3
2019-04-01T13:54:20.558Z,37.1
2019-04-01T13:55:32.754Z,37.5
2019-04-01T13:56:44.946Z,37.9
2019-04-01T14:00:21.679Z,40.3
2019-04-01T14:01:33.913Z,40.2
2019-04-01T14:02:45.922Z,39.9
2019-04-01T14:03:58.213Z,39.4
2019-04-01T14:05:10.366Z,39.6
2019-04-01T14:06:22.618Z,40.4
2019-04-01T14:07:34.714Z,38.9
2019-04-01T14:08:46.890Z,37.5
2019-04-01T14:11:11.280Z,35.8
2019-04-01T14:12:23.476Z,35.5
2019-04-01T14:13:35.909Z,34.8
2019-04-01T14:14:47.881Z,35.8
2019-04-01T14:16:00.165Z,36.3
2019-04-01T14:17:12.339Z,35.8
2019-04-01T14:18:24.434Z,35.7
2019-04-01T14:19:36.628Z,35.6
2019-04-01T14:20:48.887Z,36.5
2019-04-01T14:23:13.336Z,35.3
2019-04-01T14:24:25.420Z,36.9
2019-04-01T14:25:37.597Z,35.9
2019-04-01T14:26:49.793Z,36
2019-04-01T14:28:02.117Z,36.4
2019-04-01T14:29:14.180Z,36.6
2019-04-01T14:30:26.378Z,36.8
2019-04-01T14:31:38.598Z,35.3
2019-04-01T14:32:50.784Z,35.3
2019-04-01T14:35:15.224Z,36.5
2019-04-01T14:36:27.961Z,36.8
2019-04-01T14:37:39.715Z,37.3
2019-04-01T14:38:51.756Z,36.4
2019-04-01T14:40:03.942Z,36.8
2019-04-01T14:41:16.143Z,36.6
2019-04-01T14:42:28.330Z,37
2019-04-01T14:43:40.535Z,37.3
2019-04-01T14:44:52.913Z,36.6
2019-04-01T14:47:17.093Z,36.3
2019-04-01T14:48:29.318Z,36.4
2019-04-01T14:49:41.506Z,36.9
2019-04-01T14:50:53.811Z,37
2019-04-01T14:52:05.879Z,36.9
2019-04-01T14:53:18.108Z,35.6
2019-04-01T14:54:30.381Z,35.4
2019-04-01T14:55:42.506Z,36.4
2019-04-01T14:56:54.659Z,36.5
2019-04-01T14:59:19.035Z,37.3
2019-04-01T15:00:31.255Z,37
2019-04-01T15:01:43.412Z,37.3
2019-04-01T15:02:55.637Z,36.9
2019-04-01T15:04:07.801Z,36.7
2019-04-01T15:05:20.060Z,35.7
2019-04-01T15:06:32.550Z,35.2
2019-04-01T15:07:44.411Z,35.8
2019-04-01T15:08:56.636Z,35.2
2019-04-01T15:11:20.997Z,34.9
2019-04-01T15:12:33.183Z,34.9
2019-04-01T15:13:45.524Z,34.6
2019-04-01T15:14:57.582Z,35.4
2019-04-01T15:16:09.759Z,35.3
2019-04-01T15:17:22.106Z,35.9
2019-04-01T15:18:34.245Z,35.7
2019-04-01T15:19:46.541Z,34.8
2019-04-01T15:20:58.516Z,35.5
2019-04-01T15:22:10.736Z,34.7
2019-04-01T15:23:22.913Z,34.7
2019-04-01T15:24:35.191Z,35.6
2019-04-01T15:25:47.293Z,35.3
2019-04-01T15:26:59.521Z,36.1
